Skip Navigation Links
NOAA logo - Click to go to the NOAA homepage
NOAA's National Weather Service
Alaska Aviation Weather Unit
  NWS logo - Click to go to the NWS homepage
Left Navbar Graphic     12 AKDT = 20 GMT

   
NOAA is celebrating 200 years of science, service, and stewardship. Visit the NOAA 200th celebration Web site to learn more.
USA.gov is the U.S. Government's official Web portal to all Federal, state and local government Web resources and services.
Facebook
NWS on Facebook

Important Change Regarding the AAWU Web Presence

 

Over the last several months, the AAWU has been working to navigate its webpages to a nationally supported server. Security, as well as other needs, have necessitated the change.  We have been given an extension for the site changeover while we diligently work at addressing feedback received. As of July 14, 2017, aawu.arh.noaa.gov will be discontinued. The new AAWU web address is weather.gov/aawu. It is now live and will run in-parallel with the old site until it is discontinued on July 14, 2017. Please continue to send any feedback or questions regarding the new webpages to nws.ar.aawu.webauthors@noaa.gov.  Thank you for your patience during this time of transition.
AAWU Home :: Display TAF Add Bookmark
SPECI PAPM 251410Z AUTO 18007KT 1 3/4SM -RA BR OVC004 11/10 A2996 RMK
     AO2 VIS 3/4V5 P0000=

SPECI PAPM 251427Z AUTO 20008KT 2 1/2SM -RA BR BKN004 OVC009 11/10 A2995
     RMK AO2 P0000=

METAR PAPM 251456Z AUTO 20006KT 2 1/2SM BR OVC004 11/10 A2995 RMK
 AO2 RAE28 SLP145 P0000 60001 T01060100 56001=

SPECI PAPM 251505Z AUTO 19007KT 5SM BR OVC004 11/10 A2995 RMK AO2=

SPECI PAPM 251532Z AUTO 20007KT 10SM BKN006 OVC011 11/10 A2995 RMK
 AO2 CIG 004V009=

METAR PAPM 251556Z AUTO 20006KT 10SM SCT006 OVC012 11/09 A2995 RMK
 AO2 SLP145 T01060094=

SPECI PAPM 251607Z AUTO 20006KT 10SM BKN008 OVC012 11/09 A2995 RMK
     AO2=

METAR PAPM 251656Z AUTO 21006KT 10SM OVC006 11/09 A2996 RMK AO2 SLP147
     T01060094=

METAR PAPM 251756Z AUTO 24004KT 5SM BR OVC006 11/10 A2995 RMK AO2 CIG
     004V010 SLP145 60001 T01060100 10106 20100 58000=

METAR PAPM 251856Z AUTO 24003KT 10SM OVC006 11/10 A2995 RMK AO2 CIG
     004V008 SLP146 T01060100=

PAPM 251956Z AUTO 25005KT 10SM BKN006 OVC014 11/11 A2996 RMK AO2
     CIG 005V010 SLP147 T01110106=

SPECI PAPM 252029Z AUTO 21006KT 8SM OVC004 12/11 A2996 RMK AO2=


NOAA's National Weather Service
Alaska Aviation Weather Unit
6930 Sand Lake Road
Anchorage, AK 99502-1845
Disclaimer
Credits
Glossary
Privacy Policy
About Us
Career Opportunities
Contact AAWU Internet Services Site last modified: April, 17th 2012